Bruneau Valley, Idaho
Current Conditions -  °F | °C
As of 2:58 PM on Monday 24 Nov 2014 (Local Time) from KMUO Reporting Station
Clear Clear  
Wind Chill: 41°   Ceiling: Unl
Heat Index: 46°   Visibility: 10mi
Dew Point: 28°   Wind: 12mph
Humidity: 50%   Direction: 340°NNW
Pressure: 30.41"   Gusts: NA
Location:  42.4532°N, 115.47°W
Report Text: KMUO 242158Z AUTO 34010KT 10SM CLR 08/M02 A3041 RMK AO2 SLP311 T00781020
Loading
Personal Weather Stations






























Interactive Weather Map New forecast layout! Learn more

10-Day Weather Forecast

Advertisements
Track Severe Weather on mobile